sensor_id;sensor_type;location;lat;lon;timestamp;P1;durP1;ratioP1;P2;durP2;ratioP2
65871;SDS011;52653;50.080;21.992;2023-07-29T00:00:12;5.10;;;3.30;;
65871;SDS011;52653;50.080;21.992;2023-07-29T00:03:26;5.40;;;3.10;;
65871;SDS011;52653;50.080;21.992;2023-07-29T00:06:12;5.50;;;2.90;;
65871;SDS011;52653;50.080;21.992;2023-07-29T00:09:05;4.80;;;3.20;;
65871;SDS011;52653;50.080;21.992;2023-07-29T00:11:52;4.70;;;3.20;;
65871;SDS011;52653;50.080;21.992;2023-07-29T00:14:45;5.80;;;3.00;;
65871;SDS011;52653;50.080;21.992;2023-07-29T00:17:39;5.60;;;3.00;;
65871;SDS011;52653;50.080;21.992;2023-07-29T00:20:32;4.90;;;3.10;;
65871;SDS011;52653;50.080;21.992;2023-07-29T00:23:24;5.10;;;3.30;;
65871;SDS011;52653;50.080;21.992;2023-07-29T00:26:17;5.80;;;3.90;;
65871;SDS011;52653;50.080;21.992;2023-07-29T00:29:03;6.40;;;3.60;;
65871;SDS011;52653;50.080;21.992;2023-07-29T00:31:57;5.90;;;3.90;;
65871;SDS011;52653;50.080;21.992;2023-07-29T00:34:50;6.70;;;4.00;;
65871;SDS011;52653;50.080;21.992;2023-07-29T00:37:36;6.40;;;4.00;;
65871;SDS011;52653;50.080;21.992;2023-07-29T00:40:22;6.90;;;4.70;;
65871;SDS011;52653;50.080;21.992;2023-07-29T00:43:15;5.30;;;3.60;;
65871;SDS011;52653;50.080;21.992;2023-07-29T00:46:08;6.00;;;3.80;;
65871;SDS011;52653;50.080;21.992;2023-07-29T00:49:03;6.20;;;4.00;;
65871;SDS011;52653;50.080;21.992;2023-07-29T00:51:56;6.70;;;4.00;;
65871;SDS011;52653;50.080;21.992;2023-07-29T00:54:50;6.50;;;3.70;;
65871;SDS011;52653;50.080;21.992;2023-07-29T00:57:43;6.00;;;4.00;;
65871;SDS011;52653;50.080;21.992;2023-07-29T01:00:38;7.20;;;3.80;;
65871;SDS011;52653;50.080;21.992;2023-07-29T01:03:25;7.60;;;3.80;;
65871;SDS011;52653;50.080;21.992;2023-07-29T01:06:21;6.40;;;4.10;;
65871;SDS011;52653;50.080;21.992;2023-07-29T01:09:22;5.70;;;4.00;;
65871;SDS011;52653;50.080;21.992;2023-07-29T01:12:24;5.90;;;3.80;;
65871;SDS011;52653;50.080;21.992;2023-07-29T01:15:14;6.70;;;4.30;;
65871;SDS011;52653;50.080;21.992;2023-07-29T01:18:15;6.30;;;4.20;;
65871;SDS011;52653;50.080;21.992;2023-07-29T01:21:07;6.00;;;3.90;;
65871;SDS011;52653;50.080;21.992;2023-07-29T01:23:56;7.60;;;4.40;;
65871;SDS011;52653;50.080;21.992;2023-07-29T01:26:36;6.40;;;4.40;;
65871;SDS011;52653;50.080;21.992;2023-07-29T01:29:29;6.50;;;4.20;;
65871;SDS011;52653;50.080;21.992;2023-07-29T01:32:24;6.50;;;4.50;;
65871;SDS011;52653;50.080;21.992;2023-07-29T01:35:26;9.00;;;4.50;;
65871;SDS011;52653;50.080;21.992;2023-07-29T01:38:24;6.50;;;3.90;;
65871;SDS011;52653;50.080;21.992;2023-07-29T01:41:14;5.70;;;3.80;;
65871;SDS011;52653;50.080;21.992;2023-07-29T01:44:08;8.50;;;4.10;;
65871;SDS011;52653;50.080;21.992;2023-07-29T01:47:02;6.40;;;4.10;;
65871;SDS011;52653;50.080;21.992;2023-07-29T01:49:56;5.90;;;4.10;;
65871;SDS011;52653;50.080;21.992;2023-07-29T01:52:50;7.80;;;4.10;;
65871;SDS011;52653;50.080;21.992;2023-07-29T01:55:43;7.80;;;4.00;;
65871;SDS011;52653;50.080;21.992;2023-07-29T01:58:38;6.40;;;4.40;;
65871;SDS011;52653;50.080;21.992;2023-07-29T02:01:30;7.10;;;4.30;;
65871;SDS011;52653;50.080;21.992;2023-07-29T02:04:13;7.10;;;4.00;;
65871;SDS011;52653;50.080;21.992;2023-07-29T02:07:06;7.00;;;4.40;;
65871;SDS011;52653;50.080;21.992;2023-07-29T02:09:59;7.10;;;4.40;;
65871;SDS011;52653;50.080;21.992;2023-07-29T02:12:51;7.80;;;4.40;;
65871;SDS011;52653;50.080;21.992;2023-07-29T02:15:42;6.70;;;4.30;;
65871;SDS011;52653;50.080;21.992;2023-07-29T02:18:28;6.50;;;4.10;;
65871;SDS011;52653;50.080;21.992;2023-07-29T02:21:19;7.00;;;4.50;;
65871;SDS011;52653;50.080;21.992;2023-07-29T02:24:12;6.70;;;4.60;;
65871;SDS011;52653;50.080;21.992;2023-07-29T02:27:06;8.50;;;4.60;;
65871;SDS011;52653;50.080;21.992;2023-07-29T02:29:59;6.80;;;4.60;;
65871;SDS011;52653;50.080;21.992;2023-07-29T02:32:52;7.60;;;4.20;;
65871;SDS011;52653;50.080;21.992;2023-07-29T02:35:45;6.60;;;4.50;;
65871;SDS011;52653;50.080;21.992;2023-07-29T02:38:38;6.30;;;4.60;;
65871;SDS011;52653;50.080;21.992;2023-07-29T02:41:24;7.20;;;4.50;;
65871;SDS011;52653;50.080;21.992;2023-07-29T02:44:17;7.00;;;4.70;;
65871;SDS011;52653;50.080;21.992;2023-07-29T02:47:10;6.60;;;4.00;;
65871;SDS011;52653;50.080;21.992;2023-07-29T02:49:56;6.20;;;4.30;;
65871;SDS011;52653;50.080;21.992;2023-07-29T02:52:42;6.30;;;4.40;;
65871;SDS011;52653;50.080;21.992;2023-07-29T02:55:27;6.90;;;4.50;;
65871;SDS011;52653;50.080;21.992;2023-07-29T02:58:20;6.60;;;4.40;;
65871;SDS011;52653;50.080;21.992;2023-07-29T03:01:14;7.50;;;4.20;;
65871;SDS011;52653;50.080;21.992;2023-07-29T03:04:07;6.90;;;4.40;;
65871;SDS011;52653;50.080;21.992;2023-07-29T03:06:56;6.60;;;4.20;;
65871;SDS011;52653;50.080;21.992;2023-07-29T03:09:50;6.20;;;4.30;;
65871;SDS011;52653;50.080;21.992;2023-07-29T03:12:44;6.90;;;4.70;;
65871;SDS011;52653;50.080;21.992;2023-07-29T03:15:37;7.70;;;4.80;;
65871;SDS011;52653;50.080;21.992;2023-07-29T03:18:30;7.10;;;5.10;;
65871;SDS011;52653;50.080;21.992;2023-07-29T03:21:23;6.70;;;4.80;;
65871;SDS011;52653;50.080;21.992;2023-07-29T03:24:16;6.80;;;4.40;;
65871;SDS011;52653;50.080;21.992;2023-07-29T03:27:09;6.50;;;4.70;;
65871;SDS011;52653;50.080;21.992;2023-07-29T03:30:03;7.00;;;4.90;;
65871;SDS011;52653;50.080;21.992;2023-07-29T03:32:57;6.40;;;4.70;;
65871;SDS011;52653;50.080;21.992;2023-07-29T03:35:50;6.40;;;4.30;;
65871;SDS011;52653;50.080;21.992;2023-07-29T03:38:42;7.50;;;5.00;;
65871;SDS011;52653;50.080;21.992;2023-07-29T03:41:35;7.10;;;4.70;;
65871;SDS011;52653;50.080;21.992;2023-07-29T03:44:28;6.80;;;5.00;;
65871;SDS011;52653;50.080;21.992;2023-07-29T03:47:23;6.30;;;4.40;;
65871;SDS011;52653;50.080;21.992;2023-07-29T03:50:16;7.10;;;4.50;;
65871;SDS011;52653;50.080;21.992;2023-07-29T03:53:09;5.90;;;4.40;;
65871;SDS011;52653;50.080;21.992;2023-07-29T03:56:03;6.20;;;4.30;;
65871;SDS011;52653;50.080;21.992;2023-07-29T03:59:03;6.00;;;4.10;;
65871;SDS011;52653;50.080;21.992;2023-07-29T04:01:56;6.20;;;4.30;;
65871;SDS011;52653;50.080;21.992;2023-07-29T04:04:41;6.70;;;4.00;;
65871;SDS011;52653;50.080;21.992;2023-07-29T04:07:37;7.40;;;4.00;;
65871;SDS011;52653;50.080;21.992;2023-07-29T04:10:31;6.60;;;4.00;;
65871;SDS011;52653;50.080;21.992;2023-07-29T04:13:25;7.50;;;4.70;;
65871;SDS011;52653;50.080;21.992;2023-07-29T04:16:18;7.20;;;4.60;;
65871;SDS011;52653;50.080;21.992;2023-07-29T04:19:02;7.20;;;4.30;;
65871;SDS011;52653;50.080;21.992;2023-07-29T04:21:55;6.60;;;4.20;;
65871;SDS011;52653;50.080;21.992;2023-07-29T04:24:48;6.60;;;3.90;;
65871;SDS011;52653;50.080;21.992;2023-07-29T04:27:41;6.60;;;4.10;;
65871;SDS011;52653;50.080;21.992;2023-07-29T04:30:33;8.30;;;4.00;;
65871;SDS011;52653;50.080;21.992;2023-07-29T04:33:28;6.70;;;3.90;;
65871;SDS011;52653;50.080;21.992;2023-07-29T04:36:24;8.40;;;5.80;;
65871;SDS011;52653;50.080;21.992;2023-07-29T04:39:17;10.10;;;6.60;;
65871;SDS011;52653;50.080;21.992;2023-07-29T04:42:10;11.90;;;8.70;;
65871;SDS011;52653;50.080;21.992;2023-07-29T04:45:03;8.00;;;5.80;;
65871;SDS011;52653;50.080;21.992;2023-07-29T04:47:52;6.70;;;4.30;;
65871;SDS011;52653;50.080;21.992;2023-07-29T04:50:43;6.10;;;3.70;;
65871;SDS011;52653;50.080;21.992;2023-07-29T04:53:31;5.30;;;3.20;;
65871;SDS011;52653;50.080;21.992;2023-07-29T04:56:26;6.40;;;3.80;;
65871;SDS011;52653;50.080;21.992;2023-07-29T04:59:20;7.40;;;3.40;;
65871;SDS011;52653;50.080;21.992;2023-07-29T05:02:13;5.00;;;3.10;;
65871;SDS011;52653;50.080;21.992;2023-07-29T05:05:07;4.50;;;2.80;;
65871;SDS011;52653;50.080;21.992;2023-07-29T05:08:00;5.60;;;2.90;;
65871;SDS011;52653;50.080;21.992;2023-07-29T05:10:49;4.20;;;2.70;;
65871;SDS011;52653;50.080;21.992;2023-07-29T05:13:33;4.60;;;2.70;;
65871;SDS011;52653;50.080;21.992;2023-07-29T05:16:27;5.10;;;2.70;;
65871;SDS011;52653;50.080;21.992;2023-07-29T05:19:12;5.80;;;2.60;;
65871;SDS011;52653;50.080;21.992;2023-07-29T05:22:05;4.20;;;2.60;;
65871;SDS011;52653;50.080;21.992;2023-07-29T05:24:49;5.70;;;2.70;;
65871;SDS011;52653;50.080;21.992;2023-07-29T05:27:41;4.40;;;2.60;;
65871;SDS011;52653;50.080;21.992;2023-07-29T05:30:16;4.40;;;2.70;;
65871;SDS011;52653;50.080;21.992;2023-07-29T05:32:59;5.00;;;2.50;;
65871;SDS011;52653;50.080;21.992;2023-07-29T05:35:52;4.90;;;2.50;;
65871;SDS011;52653;50.080;21.992;2023-07-29T05:38:46;4.90;;;2.60;;
65871;SDS011;52653;50.080;21.992;2023-07-29T05:41:40;7.90;;;3.00;;
65871;SDS011;52653;50.080;21.992;2023-07-29T05:44:34;5.00;;;2.70;;
65871;SDS011;52653;50.080;21.992;2023-07-29T05:47:20;4.00;;;2.60;;
65871;SDS011;52653;50.080;21.992;2023-07-29T05:50:15;4.30;;;2.20;;
65871;SDS011;52653;50.080;21.992;2023-07-29T05:53:08;4.30;;;2.60;;
65871;SDS011;52653;50.080;21.992;2023-07-29T05:56:01;3.90;;;2.60;;
65871;SDS011;52653;50.080;21.992;2023-07-29T06:01:25;5.90;;;2.70;;
65871;SDS011;52653;50.080;21.992;2023-07-29T06:04:11;4.20;;;2.70;;
65871;SDS011;52653;50.080;21.992;2023-07-29T06:06:51;4.60;;;2.80;;
65871;SDS011;52653;50.080;21.992;2023-07-29T06:09:46;5.00;;;2.60;;
65871;SDS011;52653;50.080;21.992;2023-07-29T06:12:38;4.00;;;2.60;;
65871;SDS011;52653;50.080;21.992;2023-07-29T06:15:31;4.40;;;2.70;;
65871;SDS011;52653;50.080;21.992;2023-07-29T06:18:24;4.90;;;2.70;;
65871;SDS011;52653;50.080;21.992;2023-07-29T06:21:07;4.40;;;2.60;;
65871;SDS011;52653;50.080;21.992;2023-07-29T06:24:02;5.90;;;2.90;;
65871;SDS011;52653;50.080;21.992;2023-07-29T06:26:59;3.90;;;2.30;;
65871;SDS011;52653;50.080;21.992;2023-07-29T06:29:42;6.70;;;2.60;;
65871;SDS011;52653;50.080;21.992;2023-07-29T06:32:35;4.90;;;2.50;;
65871;SDS011;52653;50.080;21.992;2023-07-29T06:35:29;4.10;;;2.50;;
65871;SDS011;52653;50.080;21.992;2023-07-29T06:38:12;4.40;;;2.60;;
65871;SDS011;52653;50.080;21.992;2023-07-29T06:41:05;4.70;;;2.80;;
65871;SDS011;52653;50.080;21.992;2023-07-29T06:43:53;4.50;;;2.60;;
65871;SDS011;52653;50.080;21.992;2023-07-29T06:46:45;5.00;;;2.80;;
65871;SDS011;52653;50.080;21.992;2023-07-29T06:49:28;4.70;;;3.00;;
65871;SDS011;52653;50.080;21.992;2023-07-29T06:52:21;5.30;;;2.50;;
65871;SDS011;52653;50.080;21.992;2023-07-29T06:55:04;4.30;;;2.60;;
65871;SDS011;52653;50.080;21.992;2023-07-29T06:57:57;4.20;;;2.70;;
65871;SDS011;52653;50.080;21.992;2023-07-29T07:00:52;5.00;;;2.50;;
65871;SDS011;52653;50.080;21.992;2023-07-29T07:03:47;4.80;;;3.10;;
65871;SDS011;52653;50.080;21.992;2023-07-29T07:06:40;4.40;;;2.80;;
65871;SDS011;52653;50.080;21.992;2023-07-29T07:09:33;5.40;;;2.50;;
65871;SDS011;52653;50.080;21.992;2023-07-29T07:12:26;6.30;;;2.60;;
65871;SDS011;52653;50.080;21.992;2023-07-29T07:15:02;4.00;;;2.70;;
65871;SDS011;52653;50.080;21.992;2023-07-29T07:17:56;4.00;;;2.70;;
65871;SDS011;52653;50.080;21.992;2023-07-29T07:20:50;4.10;;;2.60;;
65871;SDS011;52653;50.080;21.992;2023-07-29T07:23:43;3.90;;;2.60;;
65871;SDS011;52653;50.080;21.992;2023-07-29T07:26:28;4.30;;;2.90;;
65871;SDS011;52653;50.080;21.992;2023-07-29T07:29:13;5.20;;;2.80;;
65871;SDS011;52653;50.080;21.992;2023-07-29T07:32:06;4.80;;;2.90;;
65871;SDS011;52653;50.080;21.992;2023-07-29T07:34:49;5.00;;;2.70;;
65871;SDS011;52653;50.080;21.992;2023-07-29T07:37:42;3.00;;;2.00;;
65871;SDS011;52653;50.080;21.992;2023-07-29T07:40:28;4.30;;;2.60;;
65871;SDS011;52653;50.080;21.992;2023-07-29T07:43:22;4.20;;;2.60;;
65871;SDS011;52653;50.080;21.992;2023-07-29T07:46:04;6.30;;;2.70;;
65871;SDS011;52653;50.080;21.992;2023-07-29T07:48:37;3.70;;;2.50;;
65871;SDS011;52653;50.080;21.992;2023-07-29T07:51:12;4.10;;;2.60;;
65871;SDS011;52653;50.080;21.992;2023-07-29T07:54:04;3.80;;;2.40;;
65871;SDS011;52653;50.080;21.992;2023-07-29T07:56:50;4.10;;;2.80;;
65871;SDS011;52653;50.080;21.992;2023-07-29T07:59:43;3.90;;;2.50;;
65871;SDS011;52653;50.080;21.992;2023-07-29T08:02:27;4.00;;;2.50;;
65871;SDS011;52653;50.080;21.992;2023-07-29T08:05:01;4.80;;;2.60;;
65871;SDS011;52653;50.080;21.992;2023-07-29T08:07:54;4.60;;;2.70;;
65871;SDS011;52653;50.080;21.992;2023-07-29T08:10:47;5.30;;;3.10;;
65871;SDS011;52653;50.080;21.992;2023-07-29T08:13:39;5.80;;;2.70;;
65871;SDS011;52653;50.080;21.992;2023-07-29T08:16:17;4.40;;;2.70;;
65871;SDS011;52653;50.080;21.992;2023-07-29T08:19:12;3.60;;;2.40;;
65871;SDS011;52653;50.080;21.992;2023-07-29T08:21:50;5.40;;;2.80;;
65871;SDS011;52653;50.080;21.992;2023-07-29T08:24:33;4.30;;;2.90;;
65871;SDS011;52653;50.080;21.992;2023-07-29T08:27:25;5.00;;;3.10;;
65871;SDS011;52653;50.080;21.992;2023-07-29T08:30:18;5.50;;;3.20;;
65871;SDS011;52653;50.080;21.992;2023-07-29T08:32:55;6.20;;;3.50;;
65871;SDS011;52653;50.080;21.992;2023-07-29T08:35:41;8.30;;;6.10;;
65871;SDS011;52653;50.080;21.992;2023-07-29T08:38:27;6.10;;;4.50;;
65871;SDS011;52653;50.080;21.992;2023-07-29T08:41:19;6.10;;;3.40;;
65871;SDS011;52653;50.080;21.992;2023-07-29T08:44:18;6.10;;;3.10;;
65871;SDS011;52653;50.080;21.992;2023-07-29T08:47:14;4.20;;;2.70;;
65871;SDS011;52653;50.080;21.992;2023-07-29T08:49:47;3.70;;;2.80;;
65871;SDS011;52653;50.080;21.992;2023-07-29T08:52:34;3.90;;;3.00;;
65871;SDS011;52653;50.080;21.992;2023-07-29T08:55:17;4.50;;;2.90;;
65871;SDS011;52653;50.080;21.992;2023-07-29T08:58:13;5.30;;;2.90;;
65871;SDS011;52653;50.080;21.992;2023-07-29T09:01:07;5.20;;;2.70;;
65871;SDS011;52653;50.080;21.992;2023-07-29T09:04:00;4.40;;;2.60;;
65871;SDS011;52653;50.080;21.992;2023-07-29T09:06:52;4.00;;;2.70;;
65871;SDS011;52653;50.080;21.992;2023-07-29T09:09:42;5.50;;;3.00;;
65871;SDS011;52653;50.080;21.992;2023-07-29T09:12:35;4.40;;;2.70;;
65871;SDS011;52653;50.080;21.992;2023-07-29T09:15:27;4.80;;;2.80;;
65871;SDS011;52653;50.080;21.992;2023-07-29T09:18:22;3.90;;;2.60;;
65871;SDS011;52653;50.080;21.992;2023-07-29T09:21:16;4.70;;;3.10;;
65871;SDS011;52653;50.080;21.992;2023-07-29T09:24:14;7.30;;;2.70;;
65871;SDS011;52653;50.080;21.992;2023-07-29T09:27:08;4.70;;;3.00;;
65871;SDS011;52653;50.080;21.992;2023-07-29T09:30:16;3.80;;;2.80;;
65871;SDS011;52653;50.080;21.992;2023-07-29T09:33:09;4.90;;;2.80;;
65871;SDS011;52653;50.080;21.992;2023-07-29T09:36:02;4.70;;;2.70;;
65871;SDS011;52653;50.080;21.992;2023-07-29T09:38:56;3.80;;;2.50;;
65871;SDS011;52653;50.080;21.992;2023-07-29T09:41:50;5.00;;;2.60;;
65871;SDS011;52653;50.080;21.992;2023-07-29T09:44:28;4.60;;;2.80;;
65871;SDS011;52653;50.080;21.992;2023-07-29T09:47:29;3.70;;;2.70;;
65871;SDS011;52653;50.080;21.992;2023-07-29T09:50:24;4.00;;;2.50;;
65871;SDS011;52653;50.080;21.992;2023-07-29T09:53:17;5.00;;;2.50;;
65871;SDS011;52653;50.080;21.992;2023-07-29T09:56:04;3.70;;;2.60;;
65871;SDS011;52653;50.080;21.992;2023-07-29T09:58:57;4.60;;;2.30;;
65871;SDS011;52653;50.080;21.992;2023-07-29T10:01:54;3.30;;;2.40;;
65871;SDS011;52653;50.080;21.992;2023-07-29T10:04:47;4.80;;;2.20;;
65871;SDS011;52653;50.080;21.992;2023-07-29T10:07:41;4.50;;;2.50;;
65871;SDS011;52653;50.080;21.992;2023-07-29T10:10:33;4.70;;;2.30;;
65871;SDS011;52653;50.080;21.992;2023-07-29T10:13:27;5.10;;;3.40;;
65871;SDS011;52653;50.080;21.992;2023-07-29T10:16:20;4.60;;;2.70;;
65871;SDS011;52653;50.080;21.992;2023-07-29T10:19:09;4.80;;;2.50;;
65871;SDS011;52653;50.080;21.992;2023-07-29T10:22:06;3.90;;;2.40;;
65871;SDS011;52653;50.080;21.992;2023-07-29T10:25:02;3.50;;;2.40;;
65871;SDS011;52653;50.080;21.992;2023-07-29T10:28:01;4.70;;;2.60;;
65871;SDS011;52653;50.080;21.992;2023-07-29T10:30:45;3.90;;;2.70;;
65871;SDS011;52653;50.080;21.992;2023-07-29T10:33:39;4.10;;;2.60;;
65871;SDS011;52653;50.080;21.992;2023-07-29T10:36:33;5.00;;;2.60;;
65871;SDS011;52653;50.080;21.992;2023-07-29T10:39:27;3.40;;;2.40;;
65871;SDS011;52653;50.080;21.992;2023-07-29T10:42:24;3.20;;;2.40;;
65871;SDS011;52653;50.080;21.992;2023-07-29T10:45:20;5.60;;;2.70;;
65871;SDS011;52653;50.080;21.992;2023-07-29T10:51:35;4.10;;;2.60;;
65871;SDS011;52653;50.080;21.992;2023-07-29T10:54:28;5.20;;;2.70;;
65871;SDS011;52653;50.080;21.992;2023-07-29T10:57:14;5.40;;;2.40;;
65871;SDS011;52653;50.080;21.992;2023-07-29T11:00:20;4.70;;;2.60;;
65871;SDS011;52653;50.080;21.992;2023-07-29T11:03:20;4.30;;;2.40;;
65871;SDS011;52653;50.080;21.992;2023-07-29T11:06:18;3.90;;;2.60;;
65871;SDS011;52653;50.080;21.992;2023-07-29T11:12:39;4.00;;;2.70;;
65871;SDS011;52653;50.080;21.992;2023-07-29T11:15:33;4.60;;;2.90;;
65871;SDS011;52653;50.080;21.992;2023-07-29T11:18:30;4.40;;;2.70;;
65871;SDS011;52653;50.080;21.992;2023-07-29T11:21:17;4.90;;;2.50;;
65871;SDS011;52653;50.080;21.992;2023-07-29T11:24:10;5.80;;;2.90;;
65871;SDS011;52653;50.080;21.992;2023-07-29T11:27:10;4.10;;;2.60;;
65871;SDS011;52653;50.080;21.992;2023-07-29T11:29:58;3.60;;;2.60;;
65871;SDS011;52653;50.080;21.992;2023-07-29T11:32:55;4.40;;;2.80;;
65871;SDS011;52653;50.080;21.992;2023-07-29T11:35:49;4.80;;;3.00;;
65871;SDS011;52653;50.080;21.992;2023-07-29T11:38:42;4.10;;;2.50;;
65871;SDS011;52653;50.080;21.992;2023-07-29T11:41:35;3.90;;;2.70;;
65871;SDS011;52653;50.080;21.992;2023-07-29T11:44:16;4.70;;;2.50;;
65871;SDS011;52653;50.080;21.992;2023-07-29T11:47:12;5.30;;;2.70;;
65871;SDS011;52653;50.080;21.992;2023-07-29T11:49:52;4.60;;;2.60;;
65871;SDS011;52653;50.080;21.992;2023-07-29T11:52:35;3.90;;;2.30;;
65871;SDS011;52653;50.080;21.992;2023-07-29T11:55:30;2.70;;;2.10;;
65871;SDS011;52653;50.080;21.992;2023-07-29T11:58:15;4.20;;;2.20;;
65871;SDS011;52653;50.080;21.992;2023-07-29T12:01:07;4.30;;;2.20;;
65871;SDS011;52653;50.080;21.992;2023-07-29T12:03:59;3.40;;;2.00;;
65871;SDS011;52653;50.080;21.992;2023-07-29T12:06:54;4.90;;;1.80;;
65871;SDS011;52653;50.080;21.992;2023-07-29T12:09:50;3.30;;;2.20;;
65871;SDS011;52653;50.080;21.992;2023-07-29T12:12:46;3.80;;;2.50;;
65871;SDS011;52653;50.080;21.992;2023-07-29T12:15:39;4.10;;;2.20;;
65871;SDS011;52653;50.080;21.992;2023-07-29T12:18:33;4.20;;;2.10;;
65871;SDS011;52653;50.080;21.992;2023-07-29T12:21:17;3.60;;;2.00;;
65871;SDS011;52653;50.080;21.992;2023-07-29T12:24:03;5.20;;;2.20;;
65871;SDS011;52653;50.080;21.992;2023-07-29T12:26:57;4.00;;;2.10;;
65871;SDS011;52653;50.080;21.992;2023-07-29T12:29:44;4.10;;;2.30;;
65871;SDS011;52653;50.080;21.992;2023-07-29T12:32:44;3.50;;;2.20;;
65871;SDS011;52653;50.080;21.992;2023-07-29T12:35:37;3.40;;;2.10;;
65871;SDS011;52653;50.080;21.992;2023-07-29T12:38:25;4.00;;;2.20;;
65871;SDS011;52653;50.080;21.992;2023-07-29T12:40:58;4.40;;;2.30;;
65871;SDS011;52653;50.080;21.992;2023-07-29T12:43:51;4.80;;;2.20;;
65871;SDS011;52653;50.080;21.992;2023-07-29T12:46:30;4.00;;;2.20;;
65871;SDS011;52653;50.080;21.992;2023-07-29T12:49:16;3.00;;;2.10;;
65871;SDS011;52653;50.080;21.992;2023-07-29T12:52:12;4.20;;;1.90;;
65871;SDS011;52653;50.080;21.992;2023-07-29T12:55:05;3.60;;;2.10;;
65871;SDS011;52653;50.080;21.992;2023-07-29T12:58:03;4.30;;;2.20;;
65871;SDS011;52653;50.080;21.992;2023-07-29T13:00:41;4.70;;;2.20;;
65871;SDS011;52653;50.080;21.992;2023-07-29T13:03:26;3.40;;;2.10;;
65871;SDS011;52653;50.080;21.992;2023-07-29T13:06:20;3.20;;;2.00;;
65871;SDS011;52653;50.080;21.992;2023-07-29T13:09:07;3.20;;;2.10;;
65871;SDS011;52653;50.080;21.992;2023-07-29T13:12:02;3.60;;;2.20;;
65871;SDS011;52653;50.080;21.992;2023-07-29T13:14:47;4.50;;;2.20;;
65871;SDS011;52653;50.080;21.992;2023-07-29T13:17:29;4.50;;;2.30;;
65871;SDS011;52653;50.080;21.992;2023-07-29T13:20:14;4.50;;;2.10;;
65871;SDS011;52653;50.080;21.992;2023-07-29T13:22:55;4.70;;;2.20;;
65871;SDS011;52653;50.080;21.992;2023-07-29T13:25:47;4.20;;;2.30;;
65871;SDS011;52653;50.080;21.992;2023-07-29T13:28:40;4.20;;;2.30;;
65871;SDS011;52653;50.080;21.992;2023-07-29T13:31:33;4.40;;;2.00;;
65871;SDS011;52653;50.080;21.992;2023-07-29T13:34:26;4.70;;;2.10;;
65871;SDS011;52653;50.080;21.992;2023-07-29T13:37:11;4.00;;;2.10;;
65871;SDS011;52653;50.080;21.992;2023-07-29T13:39:58;3.70;;;2.30;;
65871;SDS011;52653;50.080;21.992;2023-07-29T13:42:50;3.40;;;2.20;;
65871;SDS011;52653;50.080;21.992;2023-07-29T13:45:47;4.10;;;2.10;;
65871;SDS011;52653;50.080;21.992;2023-07-29T13:48:40;4.10;;;2.40;;
65871;SDS011;52653;50.080;21.992;2023-07-29T13:51:33;6.40;;;2.60;;
65871;SDS011;52653;50.080;21.992;2023-07-29T13:54:19;8.00;;;2.80;;
65871;SDS011;52653;50.080;21.992;2023-07-29T13:56:54;4.30;;;2.60;;
65871;SDS011;52653;50.080;21.992;2023-07-29T13:59:47;4.20;;;2.80;;
65871;SDS011;52653;50.080;21.992;2023-07-29T14:02:43;5.60;;;3.20;;
65871;SDS011;52653;50.080;21.992;2023-07-29T14:05:36;4.00;;;2.80;;
65871;SDS011;52653;50.080;21.992;2023-07-29T14:08:19;5.10;;;3.10;;
65871;SDS011;52653;50.080;21.992;2023-07-29T14:11:12;4.50;;;2.90;;
65871;SDS011;52653;50.080;21.992;2023-07-29T14:13:58;5.30;;;3.10;;
65871;SDS011;52653;50.080;21.992;2023-07-29T14:16:43;5.70;;;3.60;;
65871;SDS011;52653;50.080;21.992;2023-07-29T14:19:37;5.10;;;3.30;;
65871;SDS011;52653;50.080;21.992;2023-07-29T14:22:23;5.80;;;3.40;;
65871;SDS011;52653;50.080;21.992;2023-07-29T14:24:59;6.20;;;3.60;;
65871;SDS011;52653;50.080;21.992;2023-07-29T14:27:52;5.00;;;3.40;;
65871;SDS011;52653;50.080;21.992;2023-07-29T14:30:25;5.50;;;3.40;;
65871;SDS011;52653;50.080;21.992;2023-07-29T14:33:00;6.70;;;3.70;;
65871;SDS011;52653;50.080;21.992;2023-07-29T14:35:32;7.40;;;3.50;;
65871;SDS011;52653;50.080;21.992;2023-07-29T14:38:25;5.70;;;3.80;;
65871;SDS011;52653;50.080;21.992;2023-07-29T14:41:19;4.90;;;3.20;;
65871;SDS011;52653;50.080;21.992;2023-07-29T14:43:57;5.20;;;3.00;;
65871;SDS011;52653;50.080;21.992;2023-07-29T14:46:43;5.20;;;3.10;;
65871;SDS011;52653;50.080;21.992;2023-07-29T14:49:29;4.80;;;3.30;;
65871;SDS011;52653;50.080;21.992;2023-07-29T14:52:07;6.10;;;3.20;;
65871;SDS011;52653;50.080;21.992;2023-07-29T14:55:00;5.80;;;3.40;;
65871;SDS011;52653;50.080;21.992;2023-07-29T14:57:54;6.30;;;3.40;;
65871;SDS011;52653;50.080;21.992;2023-07-29T15:00:47;5.40;;;3.30;;
65871;SDS011;52653;50.080;21.992;2023-07-29T15:03:19;5.60;;;3.20;;
65871;SDS011;52653;50.080;21.992;2023-07-29T15:06:12;6.00;;;3.70;;
65871;SDS011;52653;50.080;21.992;2023-07-29T15:08:48;5.40;;;3.10;;
65871;SDS011;52653;50.080;21.992;2023-07-29T15:11:23;5.70;;;3.40;;
65871;SDS011;52653;50.080;21.992;2023-07-29T15:14:16;6.10;;;3.40;;
65871;SDS011;52653;50.080;21.992;2023-07-29T15:16:58;5.50;;;3.30;;
65871;SDS011;52653;50.080;21.992;2023-07-29T15:19:42;6.90;;;3.60;;
65871;SDS011;52653;50.080;21.992;2023-07-29T15:22:39;5.10;;;3.40;;
65871;SDS011;52653;50.080;21.992;2023-07-29T15:25:32;4.80;;;3.00;;
65871;SDS011;52653;50.080;21.992;2023-07-29T15:28:25;5.80;;;3.30;;
65871;SDS011;52653;50.080;21.992;2023-07-29T15:30:58;5.20;;;3.30;;
65871;SDS011;52653;50.080;21.992;2023-07-29T15:33:44;5.00;;;3.10;;
65871;SDS011;52653;50.080;21.992;2023-07-29T15:36:38;6.30;;;3.50;;
65871;SDS011;52653;50.080;21.992;2023-07-29T15:39:31;5.10;;;3.20;;
65871;SDS011;52653;50.080;21.992;2023-07-29T15:42:09;6.50;;;3.60;;
65871;SDS011;52653;50.080;21.992;2023-07-29T15:44:51;5.60;;;3.60;;
65871;SDS011;52653;50.080;21.992;2023-07-29T15:47:44;5.90;;;3.70;;
65871;SDS011;52653;50.080;21.992;2023-07-29T15:50:37;8.30;;;4.00;;
65871;SDS011;52653;50.080;21.992;2023-07-29T15:53:30;6.80;;;4.10;;
65871;SDS011;52653;50.080;21.992;2023-07-29T15:56:03;8.80;;;4.80;;
65871;SDS011;52653;50.080;21.992;2023-07-29T15:58:56;7.30;;;4.70;;
65871;SDS011;52653;50.080;21.992;2023-07-29T16:01:39;6.60;;;4.20;;
65871;SDS011;52653;50.080;21.992;2023-07-29T16:04:32;6.60;;;4.10;;
65871;SDS011;52653;50.080;21.992;2023-07-29T16:07:09;6.20;;;3.80;;
65871;SDS011;52653;50.080;21.992;2023-07-29T16:09:52;7.00;;;3.80;;
65871;SDS011;52653;50.080;21.992;2023-07-29T16:12:44;7.40;;;5.10;;
65871;SDS011;52653;50.080;21.992;2023-07-29T16:15:37;16.00;;;5.40;;
65871;SDS011;52653;50.080;21.992;2023-07-29T16:18:29;9.20;;;4.60;;
65871;SDS011;52653;50.080;21.992;2023-07-29T16:21:04;8.00;;;5.50;;
65871;SDS011;52653;50.080;21.992;2023-07-29T16:23:49;7.30;;;4.60;;
65871;SDS011;52653;50.080;21.992;2023-07-29T16:26:42;8.90;;;4.60;;
65871;SDS011;52653;50.080;21.992;2023-07-29T16:29:35;6.50;;;4.30;;
65871;SDS011;52653;50.080;21.992;2023-07-29T16:32:25;6.70;;;3.70;;
65871;SDS011;52653;50.080;21.992;2023-07-29T16:35:18;6.70;;;4.10;;
65871;SDS011;52653;50.080;21.992;2023-07-29T16:38:12;7.20;;;4.50;;
65871;SDS011;52653;50.080;21.992;2023-07-29T16:41:04;7.70;;;5.70;;
65871;SDS011;52653;50.080;21.992;2023-07-29T16:44:07;6.20;;;4.70;;
65871;SDS011;52653;50.080;21.992;2023-07-29T16:47:00;9.90;;;6.60;;
65871;SDS011;52653;50.080;21.992;2023-07-29T16:49:38;17.70;;;12.50;;
65871;SDS011;52653;50.080;21.992;2023-07-29T16:52:31;16.60;;;11.70;;
65871;SDS011;52653;50.080;21.992;2023-07-29T16:55:24;11.60;;;8.90;;
65871;SDS011;52653;50.080;21.992;2023-07-29T16:58:15;10.20;;;7.10;;